• Join FlightAware (Why Join?)
  • Login
  • US Flag 
04:51AM EDT


 

Airport Tracker/Info


-or-


 

Live Flight TrackerFlight Track Log ✈ N21921 ✈ 07-May-2013 ✈ I19 - KAKR

Flight Track Log - Related Links

Times and Time Zones

All times are in EDT time to prevent confusion due to time zone crossing. See the N21921 flight status page for this flight to view local times or setup timezone preferences in your user account.

Time Position Orientation Groundspeed Altitude Reporting Facility
EDT Latitude Longitude Course Direction KTS MPH feet Rate Location/Type
04:28PM 39.7131 -83.9347 57° Northeast 113 130 2,400  Level Indianapolis Center
04:28PM 39.7231 -83.9144 57° Northeast 147 169 2,700 960 Climbing Indianapolis Center
04:29PM 39.7469 -83.8739 53° Northeast 150 173 3,800 960 Climbing Indianapolis Center
04:30PM 39.7589 -83.8483 59° Northeast 139 160 4,300 960 Climbing Indianapolis Center
04:30PM 39.7689 -83.8333 49° Northeast 134 154 4,800 1,020 Climbing Indianapolis Center
04:31PM 39.7814 -83.8083 57° Northeast 138 159 5,400 960 Climbing Indianapolis Center
04:31PM 39.7889 -83.7925 58° Northeast 136 157 5,800 840 Climbing Indianapolis Center
04:32PM 39.8039 -83.7656 54° Northeast 138 159 6,300 960 Climbing Indianapolis Center
04:32PM 39.8131 -83.7494 53° Northeast 140 161 6,800 840 Climbing Indianapolis Center
04:33PM 39.8261 -83.7250 55° Northeast 138 159 7,200 960 Climbing Indianapolis Center
04:33PM 39.8372 -83.7061 53° Northeast 136 157 7,900 1,020 Climbing Indianapolis Center
04:34PM 39.8489 -83.6844 55° Northeast 137 158 8,300 840 Climbing Indianapolis Center
04:34PM 39.8611 -83.6656 50° Northeast 136 157 8,800 720 Climbing Indianapolis Center
04:35PM 39.8722 -83.6431 57° Northeast 139 160 9,100 240 Climbing Indianapolis Center
04:35PM 39.8878 -83.6172 52° Northeast 157 181 9,100 -120 Level Indianapolis Center
04:36PM 39.9047 -83.5833 57° Northeast 171 197 9,000 -120 Descending Indianapolis Center
04:36PM 39.9144 -83.5689 49° Northeast 189 217 9,000  Level Indianapolis Center
04:37PM 39.9361 -83.5275 56° Northeast 184 212 9,000  Level Indianapolis Center
04:37PM 39.9458 -83.5103 54° Northeast 187 215 9,000  Level Indianapolis Center
04:38PM 39.9667 -83.4706 56° Northeast 188 216 9,000  Level Indianapolis Center
04:39PM 39.9983 -83.4136 54° Northeast 191 220 9,000  Level Indianapolis Center
04:40PM 40.0292 -83.3575 54° Northeast 187 215 9,000  Level Indianapolis Center
04:41PM 40.0589 -83.3017 55° Northeast 186 214 9,000  Level Indianapolis Center
04:42PM 40.0886 -83.2461 55° Northeast 185 213 9,000  Level Indianapolis Center
04:42PM 40.0981 -83.2264 58° Northeast 187 215 9,000  Level Indianapolis Center
04:43PM 40.1186 -83.1892 54° Northeast 186 214 9,000  Level Indianapolis Center
04:44PM 40.1489 -83.1336 54° Northeast 186 214 9,000  Level Indianapolis Center
04:45PM 40.1847 -83.0683 54° Northeast 187 215 9,000  Level Indianapolis Center
04:46PM 40.2147 -83.0122 55° Northeast 186 214 9,000  Level Indianapolis Center
04:47PM 40.2458 -82.9567 54° Northeast 187 215 9,000  Level Indianapolis Center
04:48PM 40.2747 -82.9011 56° Northeast 184 212 9,000  Level Indianapolis Center
04:49PM 40.3053 -82.8456 54° Northeast 185 213 9,000  Level Indianapolis Center
04:50PM 40.3383 -82.7881 53° Northeast 187 215 9,000  Level Indianapolis Center
04:51PM 40.3681 -82.7333 55° Northeast 183 211 9,000  Level Indianapolis Center
04:52PM 40.3994 -82.6761 54° Northeast 191 220 9,000  Level Indianapolis Center
04:53PM 40.4289 -82.6200 55° Northeast 187 215 9,000  Level Indianapolis Center
04:54PM 40.4628 -82.5519 57° Northeast 189 217 9,000  Level Indianapolis Center
04:56PM 40.4939 -82.4939 55° Northeast 191 220 9,000  Level Indianapolis Center
04:57PM 40.5247 -82.4369 55° Northeast 190 219 9,000  Level Indianapolis Center
04:58PM 40.5547 -82.3803 55° Northeast 188 216 9,000  Level Indianapolis Center
04:59PM 40.5850 -82.3214 56° Northeast 192 221 9,000  Level Indianapolis Center
05:00PM 40.6161 -82.2658 54° Northeast 188 216 9,000  Level Indianapolis Center
05:00PM 40.6347 -82.2247 59° Northeast 189 217 9,000  Level Cleveland Center
05:01PM 40.6647 -82.1681 55° Northeast 189 217 9,000  Level Cleveland Center
05:02PM 40.6969 -82.1139 52° Northeast 189 217 9,000  Level Cleveland Center
05:03PM 40.7267 -82.0572 55° Northeast 189 217 9,000 -300 Level Cleveland Center
05:04PM 40.7567 -82.0003 55° Northeast 189 217 8,500 -960 Descending Cleveland Center
05:05PM 40.7908 -81.9353 55° Northeast 206 237 7,100 -1,560 Descending Cleveland Center
05:06PM 40.8269 -81.8672 55° Northeast 216 249 5,400 -960 Descending Cleveland Center
05:07PM 40.8547 -81.8075 58° Northeast 216 249 5,200 -240 Descending Cleveland Center
05:10PM 40.8869 -81.7385 52° Northeast  Level FlightAware Approximate
05:17PM 41.0333 -81.4667 37° Northeast  Level FlightAware Approximate
05:18PM 41.0375 -81.4669 37° Northeast  Level Estimated
05:19PM 41.0333 -81.4667 37° Northeast  Level FlightAware Approximate
05:20PM 41.0375 -81.4669 37° Northeast  Level Estimated
05:21PM 41.0333 -81.4667 37° Northeast  Level FlightAware Approximate
05:22PM 41.0375 -81.4669 37° Northeast  Level Estimated
05:23PM 41.0333 -81.4667 37° Northeast  Level FlightAware Approximate
05:24PM 41.0375 -81.4669 37° Northeast  Level Estimated